Espaço - Ciências - Fenômenos Naturais
Meteógrafos Informações Meteorológicas em tempo real

Aeroporto de Congonhas

Histórico do Tempo
Temperatura atual: 19 graus 66 F    Umidade relativa: 88 %
Velocidade do vento: 06 nós 10 Km/h    Direção: 150 graus SSE
Ajuste do altímetro ..: 1024 HPA
Visibilidade: Regular    Tempo presente: Poucas nuvens esparsas

Observação
Nuvens esparsas a 300 Pés., Céu encoberto a600 Pés.

Data Hora BRTTempo°CUmidadePressãoVentoVisib.
27/05 - 08:55   Névoa úmida 19° 88% 1024 Sul-sudeste/10 km/h 5000
27/05 - 07:55   Névoa úmida 19° 88% 1024 Sul-sudeste/10 km/h 4000
27/05 - 06:55   Névoa úmida 18° 93% 1023 Sul-sudeste/9 km/h 5000
27/05 - 05:55   Névoa úmida 19° 88% 1022 Sudeste/3 km/h 5000
27/05 - 04:55   Não Disponível 19° 88% 1022 /1 km/h 6000
27/05 - 03:55   Não Disponível 21° 83% 1022 Nordeste/3 km/h 8000
27/05 - 02:55   Não Disponível 21° 83% 1022 Este-nordeste/5 km/h 8000
27/05 - 01:55   Não Disponível 21° 83% 1022 Sul-sudeste/3 km/h 8000
27/05 - 00:55   Céu Limpo 22° 78% 1022 Sul/3 km/h OK
26/05 - 23:55   Céu Limpo 22° 78% 1022 /3 km/h OK
26/05 - 22:55   Céu Limpo 22° 78% 1023 Norte/3 km/h OK
26/05 - 21:55   Céu Limpo 23° 73% 1022 Nordeste/5 km/h OK
26/05 - 20:55   Céu Limpo 24° 73% 1021 Este-nordeste/5 km/h OK
26/05 - 19:55   Não Disponível 24° 65% 1021 Leste/1 km/h OK
26/05 - 18:55   Não Disponível 24° 65% 1021 Leste/1 km/h OK
26/05 - 17:55   Céu Limpo 27° 47% 1020 Sudoeste/7 km/h OK
26/05 - 16:55   Céu Limpo 28° 45% 1020 Sudoeste/5 km/h OK
26/05 - 15:55   Céu Limpo 28° 48% 1020 Noroeste/7 km/h OK
26/05 - 14:55   Céu Limpo 28° 48% 1020 Noroeste/7 km/h OK
26/05 - 13:55   Céu Limpo 29° 45% 1021 Noroeste/12 km/h OK
26/05 - 12:55   Céu Limpo 26° 54% 1023 Norte-noroeste/12 km/h CAVO
26/05 - 11:55   Céu Limpo 25° 53% 1023 Norte-noroeste/14 km/h CAVO
26/05 - 10:55   Céu Limpo 23° 69% 1023 Norte/5 km/h CAVO
26/05 - 09:55   Quase sem nuvens 21° 73% 1023 Nordeste/7 km/h 9000


Apolo11.com - Todos os direitos reservados - 2000 - 2017
Política de Privacidade   |     Termo de Uso e Licenciamento   |  -   Entre em Contato

"Democracia é a procura de soluções aproximadas para problemas insolúveis" - Reinhold Niebuhr